createdAt,value
2019-02-14T00:00:02.748Z,1019.69
2019-02-14T00:01:02.728Z,1019.67
2019-02-14T00:02:02.719Z,1019.65
2019-02-14T00:03:02.736Z,1019.65
2019-02-14T00:04:02.704Z,1019.64
2019-02-14T00:05:02.693Z,1019.66
2019-02-14T00:06:02.683Z,1019.68
2019-02-14T00:07:02.667Z,1019.78
2019-02-14T00:08:02.655Z,1019.75
2019-02-14T00:09:02.669Z,1019.74
2019-02-14T00:10:02.635Z,1019.79
2019-02-14T00:11:02.626Z,1019.79
2019-02-14T00:12:02.619Z,1019.82
2019-02-14T00:13:02.611Z,1019.83
2019-02-14T00:14:02.612Z,1019.82
2019-02-14T00:15:02.588Z,1019.81
2019-02-14T00:16:02.570Z,1019.79
2019-02-14T00:17:02.565Z,1019.81
2019-02-14T00:18:02.553Z,1019.80
2019-02-14T00:19:02.557Z,1019.84
2019-02-14T00:20:02.526Z,1019.87
2019-02-14T00:21:02.535Z,1019.87
2019-02-14T00:22:02.506Z,1019.79
2019-02-14T00:23:02.497Z,1019.78
2019-02-14T00:24:02.493Z,1019.73
2019-02-14T00:25:02.479Z,1019.76
2019-02-14T00:26:02.482Z,1019.81
2019-02-14T00:27:02.452Z,1019.82
2019-02-14T00:28:02.440Z,1019.82
2019-02-14T00:29:02.431Z,1019.83
2019-02-14T00:30:02.423Z,1019.85
2019-02-14T00:31:02.429Z,1019.82
2019-02-14T00:32:02.419Z,1019.81
2019-02-14T00:33:02.421Z,1019.78
2019-02-14T00:34:02.395Z,1019.79
2019-02-14T00:35:02.370Z,1019.85
2019-02-14T00:36:02.360Z,1019.86
2019-02-14T00:37:02.351Z,1019.86
2019-02-14T00:38:02.337Z,1019.85
2019-02-14T00:39:02.353Z,1019.84
2019-02-14T00:40:02.312Z,1019.86
2019-02-14T00:41:02.318Z,1019.88
2019-02-14T00:42:02.296Z,1019.86
2019-02-14T00:43:02.309Z,1019.88
2019-02-14T00:44:02.276Z,1019.90
2019-02-14T00:45:02.269Z,1019.87
2019-02-14T00:46:02.252Z,1019.89
2019-02-14T00:47:02.239Z,1019.85
2019-02-14T00:48:02.227Z,1019.86
2019-02-14T00:49:02.244Z,1019.89
2019-02-14T00:50:02.209Z,1019.88
2019-02-14T00:51:02.195Z,1019.86
2019-02-14T00:52:02.182Z,1019.85
2019-02-14T00:53:02.173Z,1019.91
2019-02-14T00:54:02.164Z,1019.88
2019-02-14T00:55:02.181Z,1019.89
2019-02-14T00:56:02.147Z,1019.88
2019-02-14T00:57:02.144Z,1019.87
2019-02-14T00:58:02.123Z,1019.91
2019-02-14T00:59:02.110Z,1019.88
2019-02-14T01:00:02.098Z,1019.89
2019-02-14T01:01:02.110Z,1019.85
2019-02-14T01:02:02.081Z,1019.84
2019-02-14T01:03:02.071Z,1019.77
2019-02-14T01:04:02.062Z,1019.74
2019-02-14T01:05:02.061Z,1019.76
2019-02-14T01:06:02.053Z,1019.78
2019-02-14T01:07:02.028Z,1019.75
2019-02-14T01:08:02.019Z,1019.73
2019-02-14T01:09:02.009Z,1019.71
2019-02-14T01:10:02.013Z,1019.67
2019-02-14T01:11:01.982Z,1019.64
2019-02-14T01:12:01.986Z,1019.66
2019-02-14T01:13:01.959Z,1019.67
2019-02-14T01:14:01.952Z,1019.68
2019-02-14T01:15:01.944Z,1019.66
2019-02-14T01:16:01.934Z,1019.70
2019-02-14T01:17:01.941Z,1019.74
2019-02-14T01:18:01.912Z,1019.77
2019-02-14T01:19:01.897Z,1019.76
2019-02-14T01:20:01.887Z,1019.69
2019-02-14T01:21:01.880Z,1019.70
2019-02-14T01:22:01.887Z,1019.68
2019-02-14T01:23:01.876Z,1019.70
2019-02-14T01:24:01.843Z,1019.74
2019-02-14T01:25:01.836Z,1019.76
2019-02-14T01:26:01.823Z,1019.75
2019-02-14T01:27:01.813Z,1019.75
2019-02-14T01:28:01.824Z,1019.74
2019-02-14T01:29:01.796Z,1019.80
2019-02-14T01:30:01.804Z,1019.73
2019-02-14T01:31:01.768Z,1019.74
2019-02-14T01:32:01.757Z,1019.68
2019-02-14T01:33:01.745Z,1019.69
2019-02-14T01:34:01.738Z,1019.65
2019-02-14T01:35:01.746Z,1019.57
2019-02-14T01:36:01.720Z,1019.58
2019-02-14T01:37:01.705Z,1019.62
2019-02-14T01:38:01.695Z,1019.61
2019-02-14T01:39:01.686Z,1019.64
2019-02-14T01:40:01.701Z,1019.63
2019-02-14T01:41:01.687Z,1019.63
2019-02-14T01:42:01.653Z,1019.64
2019-02-14T01:43:01.642Z,1019.60
2019-02-14T01:44:01.628Z,1019.61
2019-02-14T01:45:01.618Z,1019.61
2019-02-14T01:46:01.630Z,1019.63
2019-02-14T01:47:01.601Z,1019.52
2019-02-14T01:48:01.593Z,1019.52
2019-02-14T01:49:01.581Z,1019.49
2019-02-14T01:50:01.572Z,1019.45
2019-02-14T01:51:01.597Z,1019.50
2019-02-14T01:52:01.543Z,1019.48
2019-02-14T01:53:01.540Z,1019.47
2019-02-14T01:54:01.526Z,1019.49
2019-02-14T01:55:01.513Z,1019.44
2019-02-14T01:56:01.501Z,1019.43
2019-02-14T01:57:01.509Z,1019.48
2019-02-14T01:58:01.491Z,1019.45
2019-02-14T01:59:01.474Z,1019.43
2019-02-14T02:00:01.467Z,1019.47
2019-02-14T02:01:01.456Z,1019.49
2019-02-14T02:02:01.471Z,1019.54
2019-02-14T02:03:01.451Z,1019.57
2019-02-14T02:04:01.417Z,1019.56
2019-02-14T02:05:01.411Z,1019.64
2019-02-14T02:06:01.416Z,1019.63
2019-02-14T02:07:01.407Z,1019.68
2019-02-14T02:08:01.382Z,1019.62
2019-02-14T02:09:01.363Z,1019.67
2019-02-14T02:10:01.372Z,1019.64
2019-02-14T02:11:01.349Z,1019.63
2019-02-14T02:12:01.356Z,1019.61
2019-02-14T02:13:01.338Z,1019.63
2019-02-14T02:14:01.315Z,1019.65
2019-02-14T02:15:01.305Z,1019.62
2019-02-14T02:16:01.290Z,1019.70
2019-02-14T02:17:01.305Z,1019.71
2019-02-14T02:18:01.273Z,1019.70
2019-02-14T02:19:01.265Z,1019.65
2019-02-14T02:20:01.255Z,1019.64
2019-02-14T02:21:01.245Z,1019.61
2019-02-14T02:22:01.232Z,1019.65
2019-02-14T02:23:01.238Z,1019.69
2019-02-14T02:24:01.206Z,1019.63
2019-02-14T02:25:01.201Z,1019.67
2019-02-14T02:26:01.190Z,1019.61
2019-02-14T02:27:01.175Z,1019.64
2019-02-14T02:28:01.187Z,1019.62
2019-02-14T02:29:01.153Z,1019.61
2019-02-14T02:30:01.160Z,1019.64
2019-02-14T02:31:01.136Z,1019.59
2019-02-14T02:32:01.127Z,1019.57
2019-02-14T02:33:01.120Z,1019.53
2019-02-14T02:34:01.131Z,1019.56
2019-02-14T02:35:01.092Z,1019.59
2019-02-14T02:36:01.077Z,1019.54
2019-02-14T02:37:01.066Z,1019.58
2019-02-14T02:38:01.082Z,1019.52
2019-02-14T02:39:01.048Z,1019.57
2019-02-14T02:40:01.063Z,1019.53
2019-02-14T02:41:01.048Z,1019.52
2019-02-14T02:42:01.014Z,1019.59
2019-02-14T02:43:01.007Z,1019.52
2019-02-14T02:44:01.000Z,1019.53
2019-02-14T02:45:01.000Z,1019.54
2019-02-14T02:46:00.974Z,1019.52
2019-02-14T02:47:00.978Z,1019.55
2019-02-14T02:48:00.962Z,1019.53
2019-02-14T02:49:00.939Z,1019.56
2019-02-14T02:50:00.930Z,1019.56
2019-02-14T02:51:00.920Z,1019.56
2019-02-14T02:52:00.936Z,1019.58
2019-02-14T02:53:00.900Z,1019.58
2019-02-14T02:54:00.888Z,1019.58
2019-02-14T02:55:00.875Z,1019.61
2019-02-14T02:56:00.863Z,1019.58
2019-02-14T02:57:00.859Z,1019.62
2019-02-14T02:58:00.865Z,1019.56
2019-02-14T02:59:00.833Z,1019.54
2019-02-14T03:00:00.824Z,1019.46
2019-02-14T03:01:00.808Z,1019.50
2019-02-14T03:02:00.824Z,1019.50
2019-02-14T03:03:00.797Z,1019.48
2019-02-14T03:04:00.783Z,1019.47
2019-02-14T03:05:00.771Z,1019.49
2019-02-14T03:06:09.948Z,1019.44
2019-02-14T03:07:01.767Z,1019.45
2019-02-14T03:08:00.743Z,1019.47
2019-02-14T03:09:00.730Z,1019.40
2019-02-14T03:10:00.721Z,1019.43
2019-02-14T03:11:00.705Z,1019.44
2019-02-14T03:12:00.710Z,1019.47
2019-02-14T03:13:00.691Z,1019.41
2019-02-14T03:14:00.682Z,1019.43
2019-02-14T03:15:00.668Z,1019.38
2019-02-14T03:16:00.650Z,1019.42
2019-02-14T03:17:00.685Z,1019.44
2019-02-14T03:18:00.631Z,1019.43
2019-02-14T03:19:00.626Z,1019.47
2019-02-14T03:20:00.618Z,1019.44
2019-02-14T03:21:00.604Z,1019.45
2019-02-14T03:22:00.591Z,1019.46
2019-02-14T03:23:00.596Z,1019.51
2019-02-14T03:24:00.565Z,1019.51
2019-02-14T03:25:00.554Z,1019.51
2019-02-14T03:26:00.549Z,1019.54
2019-02-14T03:27:00.538Z,1019.53
2019-02-14T03:28:00.548Z,1019.47
2019-02-14T03:29:00.513Z,1019.46
2019-02-14T03:30:00.507Z,1019.47
2019-02-14T03:31:00.496Z,1019.53
2019-02-14T03:32:00.514Z,1019.56
2019-02-14T03:33:00.479Z,1019.60
2019-02-14T03:34:00.467Z,1019.53
2019-02-14T03:35:00.456Z,1019.57
2019-02-14T03:36:00.441Z,1019.54
2019-02-14T03:37:00.433Z,1019.54
2019-02-14T03:38:00.439Z,1019.55
2019-02-14T03:39:00.429Z,1019.57
2019-02-14T03:40:00.408Z,1019.58
2019-02-14T03:41:00.394Z,1019.60
2019-02-14T03:42:00.380Z,1019.61
2019-02-14T03:43:00.391Z,1019.63
2019-02-14T03:44:00.376Z,1019.61
2019-02-14T03:45:00.356Z,1019.63
2019-02-14T03:46:00.339Z,1019.63
2019-02-14T03:47:00.324Z,1019.66
2019-02-14T03:48:00.337Z,1019.66
2019-02-14T03:49:00.302Z,1019.65
2019-02-14T03:50:00.293Z,1019.65
2019-02-14T03:51:00.286Z,1019.66
2019-02-14T03:52:00.275Z,1019.64
2019-02-14T03:53:00.284Z,1019.67
2019-02-14T03:54:00.255Z,1019.67
2019-02-14T03:55:00.301Z,1019.69
2019-02-14T03:56:00.247Z,1019.70
2019-02-14T03:57:00.216Z,1019.72
2019-02-14T03:58:00.224Z,1019.68
2019-02-14T03:59:00.205Z,1019.66
2019-02-14T04:00:00.288Z,1019.68
2019-02-14T04:01:00.174Z,1019.65
2019-02-14T04:02:00.169Z,1019.66
2019-02-14T04:03:00.176Z,1019.63
2019-02-14T04:04:00.160Z,1019.67
2019-02-14T04:05:00.320Z,1019.63
2019-02-14T04:06:00.127Z,1019.66
2019-02-14T04:07:00.112Z,1019.65
2019-02-14T04:08:00.123Z,1019.68
2019-02-14T04:09:00.088Z,1019.67
2019-02-14T04:10:00.162Z,1019.71
2019-02-14T04:11:00.072Z,1019.67
2019-02-14T04:12:00.063Z,1019.66
2019-02-14T04:13:00.055Z,1019.70
2019-02-14T04:14:00.058Z,1019.69
2019-02-14T04:15:00.028Z,1019.67
2019-02-14T04:16:00.013Z,1019.69
2019-02-14T04:17:00.010Z,1019.68
2019-02-14T04:18:00.014Z,1019.65
2019-02-14T04:19:00.044Z,1019.61
2019-02-14T04:19:59.972Z,1019.62
2019-02-14T04:20:59.960Z,1019.61
2019-02-14T04:21:59.951Z,1019.58
2019-02-14T04:22:59.945Z,1019.59
2019-02-14T04:23:59.951Z,1019.64
2019-02-14T04:24:59.928Z,1019.61
2019-02-14T04:25:59.932Z,1019.66
2019-02-14T04:26:59.898Z,1019.63
2019-02-14T04:27:59.890Z,1019.68
2019-02-14T04:28:59.896Z,1019.66
2019-02-14T04:29:59.866Z,1019.72
2019-02-14T04:30:59.857Z,1019.69
2019-02-14T04:31:59.849Z,1019.71
2019-02-14T04:32:59.831Z,1019.71
2019-02-14T04:33:59.850Z,1019.73
2019-02-14T04:34:59.816Z,1019.69
2019-02-14T04:35:59.806Z,1019.68
2019-02-14T04:36:59.795Z,1019.65
2019-02-14T04:37:59.809Z,1019.68
2019-02-14T04:38:59.768Z,1019.65
2019-02-14T04:39:59.825Z,1019.67
2019-02-14T04:40:59.746Z,1019.64
2019-02-14T04:41:59.740Z,1019.65
2019-02-14T04:42:59.729Z,1019.68
2019-02-14T04:43:59.742Z,1019.69
2019-02-14T04:44:59.710Z,1019.68
2019-02-14T04:45:59.728Z,1019.70
2019-02-14T04:46:59.686Z,1019.73
2019-02-14T04:47:59.671Z,1019.68
2019-02-14T04:48:59.685Z,1019.64
2019-02-14T04:49:59.654Z,1019.64
2019-02-14T04:50:59.642Z,1019.66
2019-02-14T04:51:59.629Z,1019.66
2019-02-14T04:52:59.619Z,1019.67
2019-02-14T04:53:59.628Z,1019.66
2019-02-14T04:54:59.601Z,1019.69
2019-02-14T04:55:59.611Z,1019.61
2019-02-14T04:56:59.587Z,1019.65
2019-02-14T04:57:59.573Z,1019.61
2019-02-14T04:58:59.572Z,1019.65
2019-02-14T04:59:59.542Z,1019.67
2019-02-14T05:00:59.533Z,1019.64
2019-02-14T05:01:59.541Z,1019.68
2019-02-14T05:02:59.518Z,1019.67
2019-02-14T05:03:59.532Z,1019.61
2019-02-14T05:04:59.489Z,1019.65
2019-02-14T05:05:59.481Z,1019.64
2019-02-14T05:06:59.472Z,1019.67
2019-02-14T05:07:59.465Z,1019.68
2019-02-14T05:08:59.455Z,1019.70
2019-02-14T05:09:59.457Z,1019.76
2019-02-14T05:10:59.428Z,1019.78
2019-02-14T05:11:59.415Z,1019.78
2019-02-14T05:12:59.408Z,1019.81
2019-02-14T05:13:59.398Z,1019.82
2019-02-14T05:14:59.403Z,1019.89
2019-02-14T05:15:59.378Z,1019.85
2019-02-14T05:16:59.378Z,1019.85
2019-02-14T05:17:59.359Z,1019.87
2019-02-14T05:18:59.341Z,1019.90
2019-02-14T05:19:59.350Z,1019.87
2019-02-14T05:20:59.325Z,1019.86
2019-02-14T05:21:59.315Z,1019.91
2019-02-14T05:22:59.299Z,1019.90
2019-02-14T05:23:59.295Z,1019.94
2019-02-14T05:24:59.304Z,1019.94
2019-02-14T05:25:59.267Z,1019.88
2019-02-14T05:26:59.259Z,1019.92
2019-02-14T05:27:59.253Z,1019.94
2019-02-14T05:28:59.240Z,1019.98
2019-02-14T05:29:59.247Z,1019.94
2019-02-14T05:30:59.232Z,1019.96
2019-02-14T05:31:59.208Z,1019.94
2019-02-14T05:32:59.190Z,1019.97
2019-02-14T05:33:59.185Z,1019.96
2019-02-14T05:34:59.200Z,1019.94
2019-02-14T05:35:59.165Z,1019.95
2019-02-14T05:36:59.147Z,1019.94
2019-02-14T05:37:59.139Z,1019.98
2019-02-14T05:38:59.132Z,1019.96
2019-02-14T05:39:59.123Z,1019.95
2019-02-14T05:40:59.137Z,1019.97
2019-02-14T05:41:59.099Z,1019.99
2019-02-14T05:42:59.086Z,1019.97
2019-02-14T05:43:59.073Z,1020.00
2019-02-14T05:44:59.062Z,1019.98
2019-02-14T05:45:59.072Z,1019.99
2019-02-14T05:46:59.049Z,1020.00
2019-02-14T05:47:59.038Z,1019.98
2019-02-14T05:48:59.025Z,1019.98
2019-02-14T05:49:59.013Z,1019.99
2019-02-14T05:50:59.018Z,1020.00
2019-02-14T05:51:58.987Z,1020.06
2019-02-14T05:52:58.987Z,1020.05
2019-02-14T05:53:58.970Z,1020.05
2019-02-14T05:54:58.961Z,1020.08
2019-02-14T05:55:58.964Z,1020.08
2019-02-14T05:56:58.934Z,1020.14
2019-02-14T05:57:58.926Z,1020.07
2019-02-14T05:58:58.917Z,1020.14
2019-02-14T05:59:58.909Z,1020.11
2019-02-14T06:00:58.917Z,1020.15
2019-02-14T06:01:58.885Z,1020.15
2019-02-14T06:02:58.874Z,1020.17
2019-02-14T06:03:58.859Z,1020.15
2019-02-14T06:04:58.874Z,1020.26
2019-02-14T06:05:58.840Z,1020.27
2019-02-14T06:07:01.165Z,1020.27
2019-02-14T06:07:58.825Z,1020.32
2019-02-14T06:08:58.805Z,1020.31
2019-02-14T06:09:58.797Z,1020.29
2019-02-14T06:10:58.805Z,1020.28
2019-02-14T06:11:58.784Z,1020.27
2019-02-14T06:12:58.770Z,1020.26
2019-02-14T06:13:58.773Z,1020.29
2019-02-14T06:14:58.743Z,1020.28
2019-02-14T06:15:58.753Z,1020.34
2019-02-14T06:16:58.719Z,1020.37
2019-02-14T06:17:58.710Z,1020.33
2019-02-14T06:18:58.704Z,1020.39
2019-02-14T06:19:58.694Z,1020.34
2019-02-14T06:20:58.683Z,1020.34
2019-02-14T06:21:58.691Z,1020.37
2019-02-14T06:22:58.667Z,1020.34
2019-02-14T06:23:58.646Z,1020.39
2019-02-14T06:24:58.642Z,1020.37
2019-02-14T06:25:58.645Z,1020.33
2019-02-14T06:26:58.631Z,1020.36
2019-02-14T06:27:58.602Z,1020.34
2019-02-14T06:28:58.592Z,1020.36
2019-02-14T06:29:58.590Z,1020.38
2019-02-14T06:30:58.583Z,1020.37
2019-02-14T06:31:58.583Z,1020.44
2019-02-14T06:32:58.556Z,1020.43
2019-02-14T06:33:58.544Z,1020.44
2019-02-14T06:34:58.528Z,1020.41
2019-02-14T06:35:58.516Z,1020.42
2019-02-14T06:36:58.524Z,1020.42
2019-02-14T06:37:58.497Z,1020.44
2019-02-14T06:38:58.494Z,1020.42
2019-02-14T06:39:58.482Z,1020.42
2019-02-14T06:40:58.464Z,1020.40
2019-02-14T06:41:58.474Z,1020.44
2019-02-14T06:42:58.448Z,1020.40
2019-02-14T06:43:58.451Z,1020.47
2019-02-14T06:44:58.431Z,1020.42
2019-02-14T06:45:58.414Z,1020.46
2019-02-14T06:46:58.422Z,1020.48
2019-02-14T06:47:58.389Z,1020.47
2019-02-14T06:48:58.377Z,1020.52
2019-02-14T06:49:58.389Z,1020.54
2019-02-14T06:50:58.360Z,1020.54
2019-02-14T06:51:58.370Z,1020.52
2019-02-14T06:52:58.342Z,1020.53
2019-02-14T06:53:58.359Z,1020.53
2019-02-14T06:54:58.316Z,1020.53
2019-02-14T06:55:58.302Z,1020.56
2019-02-14T06:56:58.317Z,1020.62
2019-02-14T06:57:58.285Z,1020.62
2019-02-14T06:58:58.291Z,1020.62
2019-02-14T06:59:58.270Z,1020.64
2019-02-14T07:00:58.267Z,1020.67
2019-02-14T07:01:58.262Z,1020.64
2019-02-14T07:02:58.262Z,1020.64
2019-02-14T07:03:58.224Z,1020.63
2019-02-14T07:04:58.212Z,1020.64
2019-02-14T07:05:58.200Z,1020.62
2019-02-14T07:06:58.186Z,1020.59
2019-02-14T07:07:58.195Z,1020.59
2019-02-14T07:08:58.163Z,1020.56
2019-02-14T07:09:58.155Z,1020.59
2019-02-14T07:10:58.146Z,1020.61
2019-02-14T07:11:58.156Z,1020.58
2019-02-14T07:12:58.120Z,1020.59
2019-02-14T07:13:58.113Z,1020.63
2019-02-14T07:14:58.104Z,1020.63
2019-02-14T07:15:58.094Z,1020.65
2019-02-14T07:16:58.107Z,1020.66
2019-02-14T07:17:58.071Z,1020.66
2019-02-14T07:18:58.057Z,1020.69
2019-02-14T07:19:58.044Z,1020.72
2019-02-14T07:20:58.037Z,1020.71
2019-02-14T07:21:58.023Z,1020.70
2019-02-14T07:22:58.038Z,1020.73
2019-02-14T07:23:58.024Z,1020.75
2019-02-14T07:24:58.009Z,1020.73
2019-02-14T07:25:58.006Z,1020.78
2019-02-14T07:26:58.676Z,1020.71
2019-02-14T07:27:58.069Z,1020.73
2019-02-14T07:28:58.182Z,1020.71
2019-02-14T07:29:58.643Z,1020.73
2019-02-14T07:30:58.010Z,1020.77
2019-02-14T07:31:58.121Z,1020.84
2019-02-14T07:32:58.087Z,1020.82
2019-02-14T07:33:58.048Z,1020.83
2019-02-14T07:34:58.055Z,1020.85
2019-02-14T07:35:58.085Z,1020.84
2019-02-14T07:36:58.073Z,1020.82
2019-02-14T07:37:58.013Z,1020.88
2019-02-14T07:38:57.941Z,1020.90
2019-02-14T07:39:59.385Z,1020.90
2019-02-14T07:40:57.988Z,1020.90
2019-02-14T07:41:57.892Z,1020.94
2019-02-14T07:42:57.813Z,1020.93
2019-02-14T07:43:58.014Z,1020.91
2019-02-14T07:44:57.796Z,1020.91
2019-02-14T07:45:57.792Z,1020.95
2019-02-14T07:46:57.829Z,1020.95
2019-02-14T07:47:57.778Z,1020.95
2019-02-14T07:48:57.742Z,1020.95
2019-02-14T07:49:57.732Z,1020.93
2019-02-14T07:50:57.721Z,1020.89
2019-02-14T07:51:57.708Z,1020.85
2019-02-14T07:52:57.770Z,1020.85
2019-02-14T07:53:57.794Z,1020.85
2019-02-14T07:54:57.700Z,1020.80
2019-02-14T07:55:57.707Z,1020.78
2019-02-14T07:56:57.695Z,1020.81
2019-02-14T07:57:57.664Z,1020.82
2019-02-14T07:58:57.628Z,1020.77
2019-02-14T07:59:57.644Z,1020.75
2019-02-14T08:00:58.521Z,1020.71
2019-02-14T08:01:57.991Z,1020.71
2019-02-14T08:02:57.613Z,1020.72
2019-02-14T08:03:57.585Z,1020.68
2019-02-14T08:04:57.567Z,1020.60
2019-02-14T08:05:57.579Z,1020.65
2019-02-14T08:06:57.578Z,1020.64
2019-02-14T08:07:58.350Z,1020.65
2019-02-14T08:08:57.551Z,1020.64
2019-02-14T08:09:57.979Z,1020.67
2019-02-14T08:10:57.597Z,1020.58
2019-02-14T08:11:57.511Z,1020.57
2019-02-14T08:12:57.482Z,1020.58
2019-02-14T08:13:57.491Z,1020.61
2019-02-14T08:14:57.464Z,1020.59
2019-02-14T08:15:57.538Z,1020.65
2019-02-14T08:16:57.464Z,1020.65
2019-02-14T08:17:57.463Z,1020.62
2019-02-14T08:18:57.752Z,1020.65
2019-02-14T08:19:57.421Z,1020.68
2019-02-14T08:20:57.445Z,1020.68
2019-02-14T08:21:57.492Z,1020.65
2019-02-14T08:22:57.559Z,1020.67
2019-02-14T08:23:57.442Z,1020.69
2019-02-14T08:24:57.591Z,1020.70
2019-02-14T08:25:57.357Z,1020.74
2019-02-14T08:26:57.365Z,1020.74
2019-02-14T08:27:57.425Z,1020.71
2019-02-14T08:28:57.355Z,1020.68
2019-02-14T08:29:57.550Z,1020.68
2019-02-14T08:30:57.297Z,1020.72
2019-02-14T08:31:57.293Z,1020.76
2019-02-14T08:32:57.315Z,1020.75
2019-02-14T08:33:57.348Z,1020.76
2019-02-14T08:34:57.415Z,1020.71
2019-02-14T08:35:57.247Z,1020.73
2019-02-14T08:36:57.249Z,1020.75
2019-02-14T08:37:57.376Z,1020.74
2019-02-14T08:38:57.329Z,1020.73
2019-02-14T08:39:57.194Z,1020.64
2019-02-14T08:40:57.184Z,1020.62
2019-02-14T08:41:57.175Z,1020.54
2019-02-14T08:42:58.634Z,1020.58
2019-02-14T08:43:58.228Z,1020.55
2019-02-14T08:44:57.182Z,1020.53
2019-02-14T08:45:57.123Z,1020.62
2019-02-14T08:46:57.244Z,1020.67
2019-02-14T08:47:57.123Z,1020.66
2019-02-14T08:48:57.138Z,1020.66
2019-02-14T08:49:57.098Z,1020.66
2019-02-14T08:50:57.077Z,1020.62
2019-02-14T08:51:57.064Z,1020.63
2019-02-14T08:52:57.570Z,1020.63
2019-02-14T08:53:57.085Z,1020.63
2019-02-14T08:54:57.096Z,1020.56
2019-02-14T08:55:57.073Z,1020.55
2019-02-14T08:56:57.005Z,1020.48
2019-02-14T08:57:57.010Z,1020.50
2019-02-14T08:58:57.023Z,1020.53
2019-02-14T08:59:57.092Z,1020.56
2019-02-14T09:00:56.996Z,1020.54
2019-02-14T09:01:57.565Z,1020.53
2019-02-14T09:02:57.970Z,1020.55
2019-02-14T09:03:56.945Z,1020.55
2019-02-14T09:04:57.025Z,1020.58
2019-02-14T09:05:56.946Z,1020.59
2019-02-14T09:06:57.454Z,1020.60
2019-02-14T09:07:56.958Z,1020.60
2019-02-14T09:08:56.922Z,1020.61
2019-02-14T09:09:57.007Z,1020.58
2019-02-14T09:10:57.208Z,1020.61
2019-02-14T09:11:56.878Z,1020.59
2019-02-14T09:12:56.895Z,1020.63
2019-02-14T09:13:56.865Z,1020.59
2019-02-14T09:14:56.849Z,1020.58
2019-02-14T09:15:56.821Z,1020.55
2019-02-14T09:16:56.813Z,1020.53
2019-02-14T09:17:56.785Z,1020.58
2019-02-14T09:18:56.962Z,1020.55
2019-02-14T09:19:56.853Z,1020.60
2019-02-14T09:20:56.849Z,1020.60
2019-02-14T09:21:56.733Z,1020.61
2019-02-14T09:22:56.739Z,1020.59
2019-02-14T09:23:56.743Z,1020.63
2019-02-14T09:24:57.201Z,1020.62
2019-02-14T09:25:57.315Z,1020.64
2019-02-14T09:26:56.677Z,1020.66
2019-02-14T09:27:56.701Z,1020.66
2019-02-14T09:28:57.301Z,1020.68
2019-02-14T09:29:56.653Z,1020.70
2019-02-14T09:30:56.875Z,1020.75
2019-02-14T09:31:56.631Z,1020.69
2019-02-14T09:32:56.623Z,1020.74
2019-02-14T09:33:56.624Z,1020.73
2019-02-14T09:34:56.606Z,1020.72
2019-02-14T09:35:56.619Z,1020.73
2019-02-14T09:36:56.597Z,1020.76
2019-02-14T09:38:03.040Z,1020.77
2019-02-14T09:38:57.816Z,1020.76
2019-02-14T09:39:56.587Z,1020.75
2019-02-14T09:40:57.284Z,1020.77
2019-02-14T09:41:56.619Z,1020.74
2019-02-14T09:42:56.657Z,1020.75
2019-02-14T09:43:56.531Z,1020.75
2019-02-14T09:44:57.211Z,1020.72
2019-02-14T09:45:56.582Z,1020.76
2019-02-14T09:46:56.461Z,1020.78
2019-02-14T09:47:56.514Z,1020.82
2019-02-14T09:48:56.444Z,1020.81
2019-02-14T09:50:04.347Z,1020.81
2019-02-14T09:50:57.524Z,1020.80
2019-02-14T09:51:56.959Z,1020.80
2019-02-14T09:52:56.406Z,1020.76
2019-02-14T09:53:56.435Z,1020.76
2019-02-14T09:54:56.392Z,1020.66
2019-02-14T09:55:56.456Z,1020.69
2019-02-14T09:56:56.353Z,1020.68
2019-02-14T09:57:56.381Z,1020.68
2019-02-14T09:58:56.389Z,1020.67
2019-02-14T09:59:56.330Z,1020.64
2019-02-14T10:00:56.400Z,1020.68
2019-02-14T10:01:56.622Z,1020.67
2019-02-14T10:02:56.401Z,1020.68
2019-02-14T10:03:56.297Z,1020.73
2019-02-14T10:04:56.307Z,1020.70
2019-02-14T10:05:56.356Z,1020.72
2019-02-14T10:06:56.363Z,1020.69
2019-02-14T10:07:56.412Z,1020.66
2019-02-14T10:08:56.359Z,1020.66
2019-02-14T10:09:56.225Z,1020.65
2019-02-14T10:10:56.225Z,1020.67
2019-02-14T10:11:56.223Z,1020.70
2019-02-14T10:12:56.196Z,1020.70
2019-02-14T10:13:56.198Z,1020.68
2019-02-14T10:14:56.215Z,1020.65
2019-02-14T10:15:56.147Z,1020.65
2019-02-14T10:16:56.162Z,1020.66
2019-02-14T10:17:56.132Z,1020.62
2019-02-14T10:18:56.116Z,1020.67
2019-02-14T10:19:56.122Z,1020.66
2019-02-14T10:20:56.107Z,1020.63
2019-02-14T10:21:56.101Z,1020.59
2019-02-14T10:22:56.073Z,1020.59
2019-02-14T10:23:56.060Z,1020.62
2019-02-14T10:24:56.052Z,1020.65
2019-02-14T10:25:56.053Z,1020.67
2019-02-14T10:26:56.031Z,1020.67
2019-02-14T10:27:56.023Z,1020.67
2019-02-14T10:28:56.006Z,1020.66
2019-02-14T10:29:56.009Z,1020.62
2019-02-14T10:30:55.998Z,1020.61
2019-02-14T10:31:55.992Z,1020.61
2019-02-14T10:32:55.960Z,1020.59
2019-02-14T10:33:55.957Z,1020.59
2019-02-14T10:34:55.943Z,1020.60
2019-02-14T10:35:55.954Z,1020.61
2019-02-14T10:36:55.918Z,1020.53
2019-02-14T10:37:55.925Z,1020.50
2019-02-14T10:38:55.893Z,1020.53
2019-02-14T10:39:55.901Z,1020.47
2019-02-14T10:40:55.875Z,1020.46
2019-02-14T10:41:55.883Z,1020.44
2019-02-14T10:42:55.866Z,1020.42
2019-02-14T10:43:55.881Z,1020.41
2019-02-14T10:44:55.828Z,1020.42
2019-02-14T10:45:55.817Z,1020.37
2019-02-14T10:46:55.833Z,1020.36
2019-02-14T10:47:55.805Z,1020.37
2019-02-14T10:48:55.787Z,1020.41
2019-02-14T10:49:55.789Z,1020.41
2019-02-14T10:50:55.788Z,1020.37
2019-02-14T10:51:55.847Z,1020.42
2019-02-14T10:52:55.876Z,1020.40
2019-02-14T10:53:55.835Z,1020.44
2019-02-14T10:54:55.837Z,1020.37
2019-02-14T10:55:55.711Z,1020.36
2019-02-14T10:56:55.717Z,1020.42
2019-02-14T10:57:55.689Z,1020.39
2019-02-14T10:58:55.707Z,1020.36
2019-02-14T10:59:55.667Z,1020.35
2019-02-14T11:00:55.657Z,1020.38
2019-02-14T11:01:55.667Z,1020.35
2019-02-14T11:02:55.658Z,1020.31
2019-02-14T11:03:55.626Z,1020.31
2019-02-14T11:04:55.616Z,1020.33
2019-02-14T11:05:55.599Z,1020.40
2019-02-14T11:06:55.638Z,1020.35
2019-02-14T11:07:55.584Z,1020.41
2019-02-14T11:08:55.584Z,1020.32
2019-02-14T11:09:55.574Z,1020.43
2019-02-14T11:10:55.542Z,1020.38
2019-02-14T11:11:55.552Z,1020.41
2019-02-14T11:12:55.548Z,1020.44
2019-02-14T11:13:55.538Z,1020.42
2019-02-14T11:14:55.498Z,1020.41
2019-02-14T11:15:55.521Z,1020.41
2019-02-14T11:16:55.503Z,1020.37
2019-02-14T11:17:55.470Z,1020.36
2019-02-14T11:18:55.463Z,1020.36
2019-02-14T11:19:55.451Z,1020.41
2019-02-14T11:20:55.441Z,1020.37
2019-02-14T11:21:55.450Z,1020.36
2019-02-14T11:22:55.411Z,1020.33
2019-02-14T11:23:55.423Z,1020.34
2019-02-14T11:24:55.482Z,1020.34
2019-02-14T11:25:55.416Z,1020.37
2019-02-14T11:26:55.376Z,1020.37
2019-02-14T11:27:55.384Z,1020.37
2019-02-14T11:28:55.359Z,1020.37
2019-02-14T11:29:55.336Z,1020.47
2019-02-14T11:30:55.331Z,1020.43
2019-02-14T11:31:55.335Z,1020.39
2019-02-14T11:32:55.305Z,1020.43
2019-02-14T11:33:55.314Z,1020.41
2019-02-14T11:34:55.281Z,1020.42
2019-02-14T11:35:55.295Z,1020.43
2019-02-14T11:36:55.316Z,1020.42
2019-02-14T11:37:55.276Z,1020.37
2019-02-14T11:38:55.314Z,1020.37
2019-02-14T11:39:55.317Z,1020.38
2019-02-14T11:40:55.224Z,1020.33
2019-02-14T11:41:55.229Z,1020.31
2019-02-14T11:42:55.211Z,1020.30
2019-02-14T11:43:55.182Z,1020.27
2019-02-14T11:44:55.177Z,1020.26
2019-02-14T11:45:55.173Z,1020.26
2019-02-14T11:46:55.190Z,1020.25
2019-02-14T11:47:55.157Z,1020.25
2019-02-14T11:48:55.126Z,1020.26
2019-02-14T11:49:55.119Z,1020.26
2019-02-14T11:50:55.122Z,1020.25
2019-02-14T11:51:55.101Z,1020.24
2019-02-14T11:52:55.113Z,1020.28
2019-02-14T11:53:55.125Z,1020.28
2019-02-14T11:54:55.079Z,1020.28
2019-02-14T11:55:55.054Z,1020.26
2019-02-14T11:56:55.050Z,1020.22
2019-02-14T11:57:55.057Z,1020.23
2019-02-14T11:58:55.037Z,1020.19
2019-02-14T11:59:55.011Z,1020.20
2019-02-14T12:00:54.996Z,1020.20
2019-02-14T12:01:55.604Z,1020.15
2019-02-14T12:02:56.245Z,1020.18
2019-02-14T12:03:54.990Z,1020.19
2019-02-14T12:04:54.986Z,1020.14